createdAt,value
2022-07-27T00:01:07.818Z,25.30
2022-07-27T00:03:35.578Z,25.30
2022-07-27T00:06:03.555Z,25.30
2022-07-27T00:08:31.405Z,25.30
2022-07-27T00:10:59.266Z,25.20
2022-07-27T00:13:27.417Z,25.20
2022-07-27T00:15:55.050Z,25.30
2022-07-27T00:18:22.671Z,25.20
2022-07-27T00:20:50.537Z,25.20
2022-07-27T00:23:18.531Z,25.30
2022-07-27T00:25:46.216Z,25.20
2022-07-27T00:28:13.828Z,25.20
2022-07-27T00:30:41.723Z,25.20
2022-07-27T00:33:09.122Z,25.20
2022-07-27T00:35:36.805Z,25.20
2022-07-27T00:38:04.714Z,25.20
2022-07-27T00:40:32.307Z,25.20
2022-07-27T00:43:02.697Z,25.20
2022-07-27T00:45:30.807Z,25.20
2022-07-27T00:47:58.447Z,25.20
2022-07-27T00:50:26.090Z,25.20
2022-07-27T00:52:55.043Z,25.20
2022-07-27T00:55:23.257Z,25.20
2022-07-27T00:57:58.297Z,25.20
2022-07-27T01:00:29.949Z,25.10
2022-07-27T01:02:58.119Z,25.10
2022-07-27T01:05:36.195Z,25.20
2022-07-27T01:08:07.045Z,25.10
2022-07-27T01:10:35.941Z,25.10
2022-07-27T01:13:04.019Z,25.10
2022-07-27T01:15:37.580Z,25.10
2022-07-27T01:18:11.683Z,25.10
2022-07-27T01:20:42.201Z,25.10
2022-07-27T01:23:11.534Z,25.10
2022-07-27T01:25:41.878Z,25.10
2022-07-27T01:28:09.597Z,25.10
2022-07-27T01:30:37.300Z,25.10
2022-07-27T01:33:07.832Z,25.00
2022-07-27T01:35:37.594Z,25.00
2022-07-27T01:38:30.389Z,25.00
2022-07-27T01:40:58.096Z,25.00
2022-07-27T01:43:25.597Z,25.00
2022-07-27T01:45:53.174Z,25.00
2022-07-27T01:48:22.008Z,25.00
2022-07-27T01:50:51.318Z,25.00
2022-07-27T01:53:21.132Z,25.00
2022-07-27T01:55:50.867Z,25.00
2022-07-27T01:58:19.564Z,25.00
2022-07-27T02:00:49.209Z,25.00
2022-07-27T02:03:17.000Z,25.00
2022-07-27T02:05:44.487Z,25.00
2022-07-27T02:08:12.083Z,25.00
2022-07-27T02:10:59.827Z,25.00
2022-07-27T02:13:27.482Z,25.00
2022-07-27T02:15:55.317Z,24.90
2022-07-27T02:18:33.506Z,24.90
2022-07-27T02:21:06.271Z,24.90
2022-07-27T02:23:35.816Z,24.90
2022-07-27T02:26:07.352Z,24.90
2022-07-27T02:28:35.958Z,24.90
2022-07-27T02:31:03.756Z,24.90
2022-07-27T02:33:31.430Z,24.90
2022-07-27T02:35:59.000Z,24.90
2022-07-27T02:38:26.821Z,24.90
2022-07-27T02:40:54.654Z,24.90
2022-07-27T02:43:23.151Z,24.80
2022-07-27T02:45:51.652Z,24.80
2022-07-27T02:48:19.240Z,24.80
2022-07-27T02:50:46.786Z,24.80
2022-07-27T02:53:14.371Z,24.80
2022-07-27T02:55:41.906Z,24.80
2022-07-27T02:58:09.531Z,24.80
2022-07-27T03:00:37.096Z,24.80
2022-07-27T03:03:04.760Z,24.80
2022-07-27T03:05:32.553Z,24.80
2022-07-27T03:08:00.703Z,24.80
2022-07-27T03:10:28.384Z,24.80
2022-07-27T03:12:55.806Z,24.80
2022-07-27T03:15:23.569Z,24.80
2022-07-27T03:17:53.708Z,24.80
2022-07-27T03:20:21.418Z,24.80
2022-07-27T03:22:48.863Z,24.80
2022-07-27T03:25:16.498Z,24.70
2022-07-27T03:27:44.049Z,24.70
2022-07-27T03:30:12.260Z,24.70
2022-07-27T03:32:39.913Z,24.70
2022-07-27T03:35:08.202Z,24.70
2022-07-27T03:37:35.766Z,24.70
2022-07-27T03:40:03.901Z,24.70
2022-07-27T03:42:31.467Z,24.70
2022-07-27T03:44:58.911Z,24.70
2022-07-27T03:47:26.448Z,24.70
2022-07-27T03:49:54.133Z,24.70
2022-07-27T03:52:21.840Z,24.70
2022-07-27T03:54:49.915Z,24.70
2022-07-27T03:57:17.497Z,24.70
2022-07-27T03:59:44.987Z,24.70
2022-07-27T04:02:12.431Z,24.60
2022-07-27T04:04:40.060Z,24.60
2022-07-27T04:07:08.252Z,24.60
2022-07-27T04:09:37.615Z,24.60
2022-07-27T04:12:09.609Z,24.70
2022-07-27T04:14:37.243Z,24.60
2022-07-27T04:17:05.261Z,24.60
2022-07-27T04:19:32.952Z,24.60
2022-07-27T04:22:00.727Z,24.70
2022-07-27T04:24:28.534Z,24.60
2022-07-27T04:26:56.194Z,24.60
2022-07-27T04:29:24.211Z,24.60
2022-07-27T04:31:52.240Z,24.60
2022-07-27T04:34:21.091Z,24.60
2022-07-27T04:36:50.133Z,24.60
2022-07-27T04:39:17.721Z,24.60
2022-07-27T04:41:45.335Z,24.60
2022-07-27T04:44:13.371Z,24.60
2022-07-27T04:46:41.256Z,24.60
2022-07-27T04:49:09.247Z,24.60
2022-07-27T04:51:37.012Z,24.60
2022-07-27T04:54:04.700Z,24.60
2022-07-27T04:56:32.562Z,24.60
2022-07-27T04:59:00.745Z,24.60
2022-07-27T05:01:34.716Z,24.50
2022-07-27T05:04:04.278Z,24.50
2022-07-27T05:06:33.223Z,24.50
2022-07-27T05:09:00.804Z,24.50
2022-07-27T05:11:28.396Z,24.50
2022-07-27T05:13:55.789Z,24.50
2022-07-27T05:16:28.294Z,24.50
2022-07-27T05:18:57.257Z,24.50
2022-07-27T05:21:25.624Z,24.50
2022-07-27T05:23:53.164Z,24.50
2022-07-27T05:26:22.447Z,24.50
2022-07-27T05:28:50.409Z,24.50
2022-07-27T05:31:18.859Z,24.50
2022-07-27T05:33:48.743Z,24.50
2022-07-27T05:36:18.262Z,24.50
2022-07-27T05:38:46.097Z,24.40
2022-07-27T05:41:13.723Z,24.40
2022-07-27T05:43:41.387Z,24.40
2022-07-27T05:46:09.046Z,24.50
2022-07-27T05:48:36.773Z,24.40
2022-07-27T05:51:04.570Z,24.50
2022-07-27T05:53:32.063Z,24.50
2022-07-27T05:55:59.889Z,24.40
2022-07-27T05:58:29.854Z,24.40
2022-07-27T06:00:58.206Z,24.50
2022-07-27T06:03:26.472Z,24.50
2022-07-27T06:06:14.048Z,24.50
2022-07-27T06:08:41.898Z,24.50
2022-07-27T06:11:09.737Z,24.50
2022-07-27T06:13:37.462Z,24.50
2022-07-27T06:16:10.447Z,24.50
2022-07-27T06:18:38.320Z,24.50
2022-07-27T06:21:06.321Z,24.50
2022-07-27T06:23:34.050Z,24.50
2022-07-27T06:26:01.744Z,24.50
2022-07-27T06:28:29.250Z,24.50
2022-07-27T06:30:56.742Z,24.50
2022-07-27T06:33:29.449Z,24.50
2022-07-27T06:35:59.974Z,24.50
2022-07-27T06:38:30.144Z,24.50
2022-07-27T06:40:58.156Z,24.50
2022-07-27T06:43:32.647Z,24.50
2022-07-27T06:46:00.811Z,24.50
2022-07-27T06:48:28.715Z,24.50
2022-07-27T06:50:56.681Z,24.50
2022-07-27T06:53:25.230Z,24.50
2022-07-27T06:55:53.849Z,24.50
2022-07-27T06:58:23.280Z,24.50
2022-07-27T07:00:50.961Z,24.50
2022-07-27T07:03:18.937Z,24.50
2022-07-27T07:05:47.682Z,24.60
2022-07-27T07:08:15.914Z,24.60
2022-07-27T07:10:46.568Z,24.50
2022-07-27T07:13:14.596Z,24.50
2022-07-27T07:15:44.598Z,24.50
2022-07-27T07:18:14.055Z,24.50
2022-07-27T07:20:42.624Z,24.50
2022-07-27T07:23:11.345Z,24.50
2022-07-27T07:25:39.497Z,24.50
2022-07-27T07:28:08.234Z,24.60
2022-07-27T07:30:36.376Z,24.60
2022-07-27T07:33:04.126Z,24.60
2022-07-27T07:35:32.187Z,24.60
2022-07-27T07:37:59.939Z,24.60
2022-07-27T07:40:44.881Z,24.60
2022-07-27T07:43:14.723Z,24.60
2022-07-27T07:45:50.572Z,24.60
2022-07-27T07:48:23.207Z,24.60
2022-07-27T07:50:53.112Z,24.60
2022-07-27T07:53:23.387Z,24.60
2022-07-27T07:55:56.953Z,24.60
2022-07-27T07:58:24.815Z,24.60
2022-07-27T08:00:52.408Z,24.60
2022-07-27T08:03:20.529Z,24.60
2022-07-27T08:05:48.289Z,24.60
2022-07-27T08:08:17.232Z,24.60
2022-07-27T08:10:45.110Z,24.60
2022-07-27T08:13:21.160Z,24.60
2022-07-27T08:15:50.973Z,24.60
2022-07-27T08:18:19.427Z,24.70
2022-07-27T08:20:46.950Z,24.70
2022-07-27T08:23:14.669Z,24.70
2022-07-27T08:25:42.697Z,24.70
2022-07-27T08:28:10.468Z,24.70
2022-07-27T08:30:38.424Z,24.70
2022-07-27T08:33:07.333Z,24.70
2022-07-27T08:35:35.896Z,24.80
2022-07-27T08:38:07.186Z,24.80
2022-07-27T08:40:41.858Z,24.70
2022-07-27T08:43:21.480Z,24.80
2022-07-27T08:46:01.282Z,24.80
2022-07-27T08:48:31.954Z,24.70
2022-07-27T08:50:59.937Z,24.70
2022-07-27T08:53:35.883Z,24.80
2022-07-27T08:56:19.812Z,24.70
2022-07-27T08:58:47.751Z,24.70
2022-07-27T09:01:15.389Z,24.80
2022-07-27T09:03:45.977Z,24.80
2022-07-27T09:06:13.770Z,24.80
2022-07-27T09:08:42.135Z,24.80
2022-07-27T09:11:15.788Z,24.80
2022-07-27T09:13:43.448Z,24.80
2022-07-27T09:16:18.147Z,24.80
2022-07-27T09:18:47.664Z,24.80
2022-07-27T09:21:24.241Z,24.70
2022-07-27T09:24:17.776Z,24.80
2022-07-27T09:26:50.990Z,24.70
2022-07-27T09:29:18.501Z,24.80
2022-07-27T09:31:48.427Z,24.80
2022-07-27T09:34:37.638Z,24.70
2022-07-27T09:37:06.639Z,24.80
2022-07-27T09:39:34.684Z,24.80
2022-07-27T09:42:03.154Z,24.80
2022-07-27T09:44:44.053Z,24.80
2022-07-27T09:47:29.361Z,24.80
2022-07-27T09:50:21.870Z,24.80
2022-07-27T09:52:49.645Z,24.80
2022-07-27T09:55:21.516Z,24.80
2022-07-27T09:57:59.221Z,24.80
2022-07-27T10:00:27.551Z,24.80
2022-07-27T10:02:55.687Z,24.80
2022-07-27T10:05:23.629Z,24.80
2022-07-27T10:07:54.681Z,24.80
2022-07-27T10:10:24.023Z,24.80
2022-07-27T10:12:55.160Z,24.80
2022-07-27T10:15:26.659Z,24.90
2022-07-27T10:18:07.379Z,24.90
2022-07-27T10:20:39.036Z,24.90
2022-07-27T10:23:07.601Z,24.90
2022-07-27T10:25:38.013Z,24.90
2022-07-27T10:28:17.888Z,24.90
2022-07-27T10:30:49.341Z,24.90
2022-07-27T10:33:43.787Z,24.90
2022-07-27T10:36:35.381Z,24.90
2022-07-27T10:39:07.355Z,24.90
2022-07-27T10:41:41.139Z,24.90
2022-07-27T10:44:23.964Z,24.90
2022-07-27T10:47:02.875Z,25.00
2022-07-27T10:49:40.240Z,25.00
2022-07-27T10:52:07.859Z,25.00
2022-07-27T10:54:35.443Z,25.00
2022-07-27T10:57:06.281Z,25.00
2022-07-27T11:02:42.741Z,25.00
2022-07-27T11:08:35.673Z,25.10
2022-07-27T11:10:50.809Z,25.00
2022-07-27T11:13:21.914Z,25.10
2022-07-27T11:16:23.073Z,25.10
2022-07-27T11:19:05.479Z,25.10
2022-07-27T11:21:38.750Z,25.10
2022-07-27T11:24:17.650Z,25.10
2022-07-27T11:26:49.628Z,25.10
2022-07-27T11:29:20.940Z,25.20
2022-07-27T11:31:59.171Z,25.10
2022-07-27T11:34:37.137Z,25.20
2022-07-27T11:37:14.839Z,25.20
2022-07-27T11:42:40.193Z,25.20
2022-07-27T11:45:08.722Z,25.20
2022-07-27T11:47:37.306Z,25.20
2022-07-27T11:50:11.655Z,25.20
2022-07-27T11:52:39.601Z,25.20
2022-07-27T11:55:08.324Z,25.20
2022-07-27T11:57:36.509Z,25.30
2022-07-27T12:00:06.213Z,25.20
2022-07-27T12:02:52.287Z,25.20
2022-07-27T12:05:21.030Z,25.30
2022-07-27T12:07:48.741Z,25.30
2022-07-27T12:10:16.676Z,25.30
2022-07-27T12:12:49.776Z,25.30
2022-07-27T12:15:45.868Z,25.30
2022-07-27T12:18:07.995Z,25.40
2022-07-27T12:20:37.504Z,25.40
2022-07-27T12:23:08.274Z,25.40
2022-07-27T12:25:36.780Z,25.40
2022-07-27T12:28:15.751Z,25.40
2022-07-27T12:30:50.163Z,25.40
2022-07-27T12:33:31.233Z,25.40
2022-07-27T12:36:00.124Z,25.40
2022-07-27T12:38:46.686Z,25.40
2022-07-27T12:41:38.377Z,25.40
2022-07-27T12:44:12.664Z,25.40
2022-07-27T12:46:54.733Z,25.40
2022-07-27T12:49:26.776Z,25.40
2022-07-27T12:52:08.427Z,25.40
2022-07-27T12:54:36.858Z,25.40
2022-07-27T12:57:04.831Z,25.40
2022-07-27T12:59:32.627Z,25.40
2022-07-27T13:02:00.309Z,25.40
2022-07-27T13:04:28.157Z,25.40
2022-07-27T13:06:55.792Z,25.40
2022-07-27T13:09:23.640Z,25.50
2022-07-27T13:11:51.451Z,25.50
2022-07-27T13:14:19.053Z,25.50
2022-07-27T13:16:46.781Z,25.50
2022-07-27T13:19:15.916Z,25.50
2022-07-27T13:21:45.147Z,25.50
2022-07-27T13:24:13.005Z,25.50
2022-07-27T13:26:41.222Z,25.50
2022-07-27T13:29:09.134Z,25.50
2022-07-27T13:31:37.382Z,25.50
2022-07-27T13:34:05.598Z,25.50
2022-07-27T13:36:33.082Z,25.40
2022-07-27T13:39:00.748Z,25.50
2022-07-27T13:41:28.481Z,25.40
2022-07-27T13:43:56.090Z,25.40
2022-07-27T13:46:23.688Z,25.40
2022-07-27T13:48:51.265Z,25.40
2022-07-27T13:51:21.648Z,25.40
2022-07-27T13:53:49.501Z,25.40
2022-07-27T13:56:17.181Z,25.40
2022-07-27T13:58:51.410Z,25.40
2022-07-27T14:01:19.043Z,25.40
2022-07-27T14:03:46.664Z,25.40
2022-07-27T14:06:15.352Z,25.40
2022-07-27T14:08:42.963Z,25.40
2022-07-27T14:11:10.847Z,25.40
2022-07-27T14:13:38.422Z,25.40
2022-07-27T14:16:09.189Z,25.40
2022-07-27T14:18:37.365Z,25.50
2022-07-27T14:21:09.369Z,25.50
2022-07-27T14:23:38.127Z,25.50
2022-07-27T14:26:08.502Z,25.50
2022-07-27T14:28:38.563Z,25.40
2022-07-27T14:31:09.811Z,25.40
2022-07-27T14:33:38.663Z,25.40
2022-07-27T14:36:09.689Z,25.40
2022-07-27T14:38:38.218Z,25.40
2022-07-27T14:41:06.669Z,25.40
2022-07-27T14:43:34.611Z,25.40
2022-07-27T14:46:02.228Z,25.40
2022-07-27T14:49:03.380Z,25.50
2022-07-27T14:51:17.307Z,25.50
2022-07-27T14:53:44.983Z,25.50
2022-07-27T14:56:12.704Z,25.50
2022-07-27T14:58:40.431Z,25.50
2022-07-27T15:01:08.600Z,25.50
2022-07-27T15:03:36.345Z,25.50
2022-07-27T15:06:04.014Z,25.50
2022-07-27T15:08:31.678Z,25.50
2022-07-27T15:10:59.547Z,25.50
2022-07-27T15:13:27.592Z,25.50
2022-07-27T15:15:56.485Z,25.50
2022-07-27T15:18:24.420Z,25.50
2022-07-27T15:20:52.230Z,25.50
2022-07-27T15:23:20.046Z,25.50
2022-07-27T15:25:47.852Z,25.50
2022-07-27T15:28:16.333Z,25.50
2022-07-27T15:30:44.110Z,25.50
2022-07-27T15:33:14.557Z,25.50
2022-07-27T15:35:42.309Z,25.50
2022-07-27T15:38:10.151Z,25.50
2022-07-27T15:40:37.944Z,25.50
2022-07-27T15:43:12.319Z,25.50
2022-07-27T15:45:47.946Z,25.50
2022-07-27T15:48:18.411Z,25.50
2022-07-27T15:50:49.813Z,25.50
2022-07-27T15:53:20.886Z,25.50
2022-07-27T15:55:49.426Z,25.50
2022-07-27T15:58:20.287Z,25.50
2022-07-27T16:00:56.092Z,25.50
2022-07-27T16:03:26.899Z,25.50
2022-07-27T16:05:55.266Z,25.50
2022-07-27T16:08:22.971Z,25.50
2022-07-27T16:10:50.888Z,25.50
2022-07-27T16:13:21.440Z,25.50
2022-07-27T16:16:07.865Z,25.50
2022-07-27T16:18:38.745Z,25.50
2022-07-27T16:21:07.412Z,25.50
2022-07-27T16:23:35.278Z,25.50
2022-07-27T16:26:06.844Z,25.50
2022-07-27T16:28:39.577Z,25.50
2022-07-27T16:31:11.084Z,25.40
2022-07-27T16:33:39.206Z,25.50
2022-07-27T16:36:08.299Z,25.40
2022-07-27T16:38:49.539Z,25.40
2022-07-27T16:41:21.014Z,25.40
2022-07-27T16:43:49.619Z,25.40
2022-07-27T16:46:17.935Z,25.50
2022-07-27T16:48:48.198Z,25.40
2022-07-27T16:51:16.478Z,25.40
2022-07-27T16:53:48.431Z,25.40
2022-07-27T16:56:16.270Z,25.40
2022-07-27T16:58:44.799Z,25.40
2022-07-27T17:01:15.099Z,25.40
2022-07-27T17:03:51.594Z,25.40
2022-07-27T17:06:21.102Z,25.40
2022-07-27T17:08:49.228Z,25.40
2022-07-27T17:11:21.663Z,25.40
2022-07-27T17:13:50.760Z,25.40
2022-07-27T17:16:18.978Z,25.40
2022-07-27T17:18:46.830Z,25.40
2022-07-27T17:21:14.931Z,25.40
2022-07-27T17:23:44.060Z,25.30
2022-07-27T17:26:13.979Z,25.40
2022-07-27T17:28:42.553Z,25.40
2022-07-27T17:31:12.970Z,25.40
2022-07-27T17:33:42.602Z,25.30
2022-07-27T17:36:15.010Z,25.30
2022-07-27T17:38:47.739Z,25.30
2022-07-27T17:41:23.538Z,25.30
2022-07-27T17:43:52.952Z,25.30
2022-07-27T17:46:21.382Z,25.30
2022-07-27T17:48:49.160Z,25.30
2022-07-27T17:51:16.736Z,25.30
2022-07-27T17:53:45.045Z,25.30
2022-07-27T17:56:13.504Z,25.30
2022-07-27T17:58:43.121Z,25.30
2022-07-27T18:01:10.812Z,25.30
2022-07-27T18:03:38.579Z,25.30
2022-07-27T18:06:07.177Z,25.20
2022-07-27T18:08:36.453Z,25.30
2022-07-27T18:11:04.464Z,25.20
2022-07-27T18:13:37.800Z,25.20
2022-07-27T18:16:13.563Z,25.30
2022-07-27T18:18:42.806Z,25.20
2022-07-27T18:21:11.301Z,25.20
2022-07-27T18:23:39.511Z,25.20
2022-07-27T18:26:07.894Z,25.20
2022-07-27T18:28:39.473Z,25.20
2022-07-27T18:31:10.157Z,25.20
2022-07-27T18:33:40.659Z,25.20
2022-07-27T18:36:08.421Z,25.20
2022-07-27T18:38:35.894Z,25.20
2022-07-27T18:41:03.630Z,25.20
2022-07-27T18:43:31.465Z,25.20
2022-07-27T18:46:02.080Z,25.20
2022-07-27T18:48:29.851Z,25.20
2022-07-27T18:50:57.576Z,25.20
2022-07-27T18:53:25.274Z,25.20
2022-07-27T18:55:56.447Z,25.20
2022-07-27T18:58:24.808Z,25.10
2022-07-27T19:00:52.316Z,25.10
2022-07-27T19:03:22.494Z,25.10
2022-07-27T19:05:53.302Z,25.20
2022-07-27T19:08:22.932Z,25.20
2022-07-27T19:10:51.642Z,25.10
2022-07-27T19:13:19.412Z,25.10
2022-07-27T19:15:47.086Z,25.10
2022-07-27T19:18:14.774Z,25.10
2022-07-27T19:20:42.747Z,25.10
2022-07-27T19:23:10.564Z,25.10
2022-07-27T19:25:38.513Z,25.10
2022-07-27T19:28:06.409Z,25.10
2022-07-27T19:30:34.680Z,25.10
2022-07-27T19:33:02.795Z,25.10
2022-07-27T19:35:30.485Z,25.10
2022-07-27T19:37:58.712Z,25.10
2022-07-27T19:40:43.977Z,25.10
2022-07-27T19:43:12.080Z,25.10
2022-07-27T19:45:39.655Z,25.10
2022-07-27T19:48:08.582Z,25.10
2022-07-27T19:50:36.448Z,25.10
2022-07-27T19:53:04.612Z,25.10
2022-07-27T19:55:32.301Z,25.00
2022-07-27T19:58:00.681Z,25.10
2022-07-27T20:00:28.972Z,25.00
2022-07-27T20:02:57.012Z,25.00
2022-07-27T20:05:24.823Z,25.00
2022-07-27T20:07:52.781Z,25.00
2022-07-27T20:10:21.997Z,25.00
2022-07-27T20:12:49.605Z,25.00
2022-07-27T20:15:19.888Z,25.00
2022-07-27T20:17:50.634Z,25.00
2022-07-27T20:20:18.491Z,25.00
2022-07-27T20:22:46.373Z,25.00
2022-07-27T20:25:15.106Z,25.00
2022-07-27T20:27:43.477Z,25.00
2022-07-27T20:30:18.722Z,25.00
2022-07-27T20:32:50.579Z,25.00
2022-07-27T20:35:18.735Z,25.00
2022-07-27T20:37:47.619Z,25.00
2022-07-27T20:40:16.570Z,25.00
2022-07-27T20:42:44.368Z,24.90
2022-07-27T20:45:14.795Z,24.90
2022-07-27T20:47:43.886Z,24.90
2022-07-27T20:50:15.304Z,24.90
2022-07-27T20:52:43.463Z,24.90
2022-07-27T20:55:14.741Z,24.80
2022-07-27T20:57:42.542Z,24.80
2022-07-27T21:00:11.228Z,24.80
2022-07-27T21:02:39.511Z,24.80
2022-07-27T21:05:09.366Z,24.80
2022-07-27T21:07:37.098Z,24.80
2022-07-27T21:10:06.883Z,24.80
2022-07-27T21:12:34.814Z,24.80
2022-07-27T21:15:02.712Z,24.80
2022-07-27T21:17:30.472Z,24.80
2022-07-27T21:19:58.132Z,24.80
2022-07-27T21:22:25.763Z,24.80
2022-07-27T21:24:53.913Z,24.80
2022-07-27T21:27:22.053Z,24.80
2022-07-27T21:29:50.321Z,24.80
2022-07-27T21:32:18.325Z,24.80
2022-07-27T21:34:45.772Z,24.80
2022-07-27T21:37:13.339Z,24.80
2022-07-27T21:39:41.304Z,24.80
2022-07-27T21:42:08.976Z,24.80
2022-07-27T21:44:37.705Z,24.80
2022-07-27T21:47:13.043Z,24.80
2022-07-27T21:49:41.609Z,24.80
2022-07-27T21:52:09.497Z,24.80
2022-07-27T21:54:36.999Z,24.80
2022-07-27T21:57:04.730Z,24.80
2022-07-27T21:59:32.300Z,24.80
2022-07-27T22:02:01.131Z,24.80
2022-07-27T22:04:29.163Z,24.70
2022-07-27T22:06:57.198Z,24.70
2022-07-27T22:09:24.914Z,24.70
2022-07-27T22:11:52.557Z,24.70
2022-07-27T22:14:24.667Z,24.70
2022-07-27T22:16:53.245Z,24.70
2022-07-27T22:19:20.799Z,24.60
2022-07-27T22:21:48.491Z,24.60
2022-07-27T22:24:16.447Z,24.60
2022-07-27T22:26:44.355Z,24.60
2022-07-27T22:29:12.564Z,24.60
2022-07-27T22:31:40.271Z,24.60
2022-07-27T22:34:07.982Z,24.60
2022-07-27T22:36:44.476Z,24.60
2022-07-27T22:39:13.170Z,24.60
2022-07-27T22:41:40.792Z,24.50
2022-07-27T22:44:08.400Z,24.50
2022-07-27T22:46:36.361Z,24.50
2022-07-27T22:49:04.830Z,24.50
2022-07-27T22:51:48.647Z,24.50
2022-07-27T22:54:17.844Z,24.50
2022-07-27T22:56:45.932Z,24.50
2022-07-27T22:59:13.996Z,24.50
2022-07-27T23:01:47.043Z,24.40
2022-07-27T23:04:17.167Z,24.40
2022-07-27T23:06:46.115Z,24.40
2022-07-27T23:09:13.949Z,24.40
2022-07-27T23:11:41.898Z,24.40
2022-07-27T23:14:09.467Z,24.40
2022-07-27T23:16:37.365Z,24.40
2022-07-27T23:19:05.351Z,24.40
2022-07-27T23:21:33.181Z,24.30
2022-07-27T23:24:01.450Z,24.40
2022-07-27T23:26:29.945Z,24.30
2022-07-27T23:28:57.600Z,24.30
2022-07-27T23:31:26.441Z,24.30
2022-07-27T23:33:54.026Z,24.30
2022-07-27T23:36:21.792Z,24.30
2022-07-27T23:38:49.421Z,24.30
2022-07-27T23:41:17.116Z,24.30
2022-07-27T23:43:45.089Z,24.30
2022-07-27T23:46:12.722Z,24.30
2022-07-27T23:48:40.428Z,24.30
2022-07-27T23:51:09.117Z,24.30
2022-07-27T23:53:37.064Z,24.30
2022-07-27T23:56:04.767Z,24.20
2022-07-27T23:58:32.282Z,24.20
